createdAt,value
2022-10-16T00:02:44.217Z,96868.72
2022-10-16T00:06:47.162Z,96865.31
2022-10-16T00:10:47.541Z,96874.03
2022-10-16T00:14:48.066Z,96875.88
2022-10-16T00:18:48.215Z,96873.31
2022-10-16T00:22:51.279Z,96877.59
2022-10-16T00:26:54.558Z,96878.47
2022-10-16T00:30:55.566Z,96884.81
2022-10-16T00:34:56.353Z,96879.22
2022-10-16T00:39:02.972Z,96835.00
2022-10-16T00:43:03.545Z,96886.78
2022-10-16T00:47:03.793Z,96884.56
2022-10-16T00:51:04.328Z,96875.53
2022-10-16T00:55:09.907Z,96867.78
2022-10-16T00:59:18.886Z,96883.00
2022-10-16T01:03:32.424Z,96878.63
2022-10-16T01:07:47.914Z,96871.72
2022-10-16T01:12:05.300Z,96885.09
2022-10-16T01:16:16.921Z,96892.09
2022-10-16T01:20:30.037Z,96872.13
2022-10-16T01:24:43.005Z,96884.75
2022-10-16T01:28:53.816Z,96888.69
2022-10-16T01:33:01.343Z,96889.59
2022-10-16T01:37:09.487Z,96894.97
2022-10-16T01:41:16.294Z,96890.53
2022-10-16T01:45:23.184Z,96891.16
2022-10-16T01:49:26.825Z,96892.19
2022-10-16T01:53:29.492Z,96890.84
2022-10-16T01:57:32.502Z,96900.91
2022-10-16T02:01:40.260Z,96903.22
2022-10-16T02:05:49.159Z,96898.59
2022-10-16T02:09:49.747Z,96885.22
2022-10-16T02:13:57.327Z,96883.69
2022-10-16T02:18:00.084Z,96897.66
2022-10-16T02:22:07.421Z,96904.34
2022-10-16T02:26:12.846Z,96922.81
2022-10-16T02:30:19.414Z,96925.38
2022-10-16T02:34:26.071Z,96939.25
2022-10-16T02:38:31.280Z,96928.22
2022-10-16T02:42:38.693Z,96931.59
2022-10-16T02:46:38.829Z,96930.00
2022-10-16T02:50:41.622Z,96928.47
2022-10-16T02:54:41.753Z,96922.25
2022-10-16T02:58:41.861Z,96917.13
2022-10-16T03:02:42.429Z,96916.75
2022-10-16T03:06:45.067Z,96918.13
2022-10-16T03:10:45.293Z,96923.28
2022-10-16T03:14:45.633Z,96891.03
2022-10-16T03:18:46.200Z,96928.44
2022-10-16T03:22:48.988Z,96925.19
2022-10-16T03:26:52.516Z,96929.31
2022-10-16T03:30:52.614Z,96935.69
2022-10-16T03:34:54.130Z,96939.63
2022-10-16T03:38:56.797Z,96945.00
2022-10-16T03:42:58.705Z,96941.09
2022-10-16T03:46:58.980Z,96934.72
2022-10-16T03:50:59.200Z,96938.94
2022-10-16T03:55:01.851Z,96928.69
2022-10-16T03:59:01.874Z,96950.19
2022-10-16T04:03:01.966Z,96951.53
2022-10-16T04:07:02.138Z,96953.56
2022-10-16T04:11:05.034Z,96966.44
2022-10-16T04:15:05.277Z,96961.72
2022-10-16T04:19:05.498Z,96954.13
2022-10-16T04:23:06.270Z,96949.84
2022-10-16T04:27:09.130Z,96963.56
2022-10-16T04:31:10.402Z,96954.91
2022-10-16T04:35:12.049Z,96966.34
2022-10-16T04:39:13.190Z,96910.50
2022-10-16T04:43:15.893Z,96967.94
2022-10-16T04:47:16.739Z,96970.97
2022-10-16T04:51:17.132Z,96977.69
2022-10-16T04:55:17.588Z,96979.84
2022-10-16T04:59:21.308Z,96974.47
2022-10-16T05:03:21.539Z,96994.47
2022-10-16T05:07:21.970Z,96959.69
2022-10-16T05:11:22.154Z,96987.88
2022-10-16T05:15:26.024Z,96990.22
2022-10-16T05:19:27.798Z,96984.41
2022-10-16T05:23:28.699Z,96981.44
2022-10-16T05:27:29.145Z,96982.63
2022-10-16T05:31:32.105Z,96984.97
2022-10-16T05:35:32.285Z,96979.06
2022-10-16T05:39:32.342Z,96975.06
2022-10-16T05:43:33.517Z,96958.47
2022-10-16T05:47:36.409Z,96981.25
2022-10-16T05:51:36.543Z,96992.50
2022-10-16T05:55:36.590Z,96997.50
2022-10-16T05:59:36.687Z,97001.47
2022-10-16T06:03:39.419Z,97007.41
2022-10-16T06:07:40.718Z,97001.25
2022-10-16T06:11:40.968Z,97016.38
2022-10-16T06:15:42.787Z,97026.06
2022-10-16T06:19:45.522Z,97034.81
2022-10-16T06:23:46.999Z,97055.84
2022-10-16T06:27:47.344Z,97052.25
2022-10-16T06:31:47.648Z,97060.19
2022-10-16T06:35:50.286Z,97063.19
2022-10-16T06:39:50.345Z,97072.25
2022-10-16T06:43:51.381Z,97071.59
2022-10-16T06:47:51.480Z,97075.88
2022-10-16T06:51:54.245Z,97074.81
2022-10-16T06:55:54.698Z,97076.13
2022-10-16T06:59:55.506Z,97080.13
2022-10-16T07:03:56.323Z,97081.31
2022-10-16T07:07:59.109Z,97088.03
2022-10-16T07:11:59.310Z,97095.50
2022-10-16T07:15:59.458Z,97066.75
2022-10-16T07:19:59.574Z,97096.56
2022-10-16T07:24:04.738Z,97093.81
2022-10-16T07:28:04.935Z,97108.53
2022-10-16T07:32:06.412Z,97119.88
2022-10-16T07:36:07.450Z,97123.53
2022-10-16T07:40:12.902Z,97129.38
2022-10-16T07:44:13.035Z,97150.47
2022-10-16T07:48:13.035Z,97133.41
2022-10-16T07:52:13.054Z,97134.03
2022-10-16T07:56:16.811Z,97147.78
2022-10-16T08:00:17.887Z,97152.75
2022-10-16T08:04:17.959Z,97156.06
2022-10-16T08:08:19.656Z,97168.56
2022-10-16T08:12:22.394Z,97177.56
2022-10-16T08:16:22.544Z,97162.34
2022-10-16T08:20:22.675Z,97130.75
2022-10-16T08:24:23.072Z,97145.38
2022-10-16T08:28:27.120Z,97143.47
2022-10-16T08:32:27.713Z,97133.41
2022-10-16T08:36:28.151Z,97155.75
2022-10-16T08:40:32.148Z,97167.56
2022-10-16T08:45:21.025Z,97166.66
2022-10-16T08:49:21.810Z,97173.25
2022-10-16T08:53:29.358Z,97167.16
2022-10-16T08:57:32.474Z,97160.50
2022-10-16T09:01:45.695Z,97169.88
2022-10-16T09:06:04.664Z,97154.53
2022-10-16T09:10:30.585Z,97162.56
2022-10-16T09:14:58.866Z,97174.28
2022-10-16T09:19:19.006Z,97161.44
2022-10-16T09:23:22.078Z,97165.06
2022-10-16T09:27:22.159Z,97166.81
2022-10-16T09:31:25.217Z,97170.81
2022-10-16T09:35:41.597Z,97167.38
2022-10-16T09:39:49.056Z,97168.75
2022-10-16T09:43:57.405Z,97168.59
2022-10-16T09:47:57.970Z,97175.91
2022-10-16T09:52:16.557Z,97174.50
2022-10-16T09:56:27.049Z,97171.66
2022-10-16T10:00:28.960Z,97170.09
2022-10-16T10:04:29.523Z,97173.31
2022-10-16T10:08:32.229Z,97150.56
2022-10-16T10:12:37.534Z,97188.88
2022-10-16T10:16:39.421Z,97195.41
2022-10-16T10:20:42.149Z,97203.09
2022-10-16T10:24:45.480Z,97205.16
2022-10-16T10:29:03.895Z,97190.16
2022-10-16T10:33:27.787Z,97156.97
2022-10-16T10:37:55.629Z,97205.16
2022-10-16T10:42:31.909Z,97155.13
2022-10-16T10:46:43.294Z,97190.91
2022-10-16T10:50:53.134Z,97183.84
2022-10-16T10:55:00.543Z,97187.00
2022-10-16T10:59:23.443Z,97192.22
2022-10-16T11:03:58.944Z,97192.69
2022-10-16T11:08:04.516Z,97182.88
2022-10-16T11:12:15.852Z,97170.47
2022-10-16T11:16:25.574Z,97188.16
2022-10-16T11:20:31.329Z,97181.41
2022-10-16T11:24:46.825Z,97197.00
2022-10-16T11:28:53.132Z,97185.19
2022-10-16T11:33:13.909Z,97187.91
2022-10-16T11:37:21.539Z,97180.47
2022-10-16T11:41:32.731Z,97180.97
2022-10-16T11:45:44.909Z,97181.31
2022-10-16T11:49:51.322Z,97169.63
2022-10-16T11:54:02.605Z,97178.59
2022-10-16T11:58:09.624Z,97177.75
2022-10-16T12:02:35.352Z,97183.59
2022-10-16T12:06:46.330Z,97179.22
2022-10-16T12:10:50.707Z,97182.75
2022-10-16T12:15:14.692Z,97180.09
2022-10-16T12:19:18.169Z,97195.13
2022-10-16T12:23:26.553Z,97193.94
2022-10-16T12:27:33.500Z,97205.59
2022-10-16T12:31:57.488Z,97201.66
2022-10-16T12:36:00.106Z,97189.69
2022-10-16T12:40:15.034Z,97199.66
2022-10-16T12:44:27.466Z,97195.69
2022-10-16T12:48:36.783Z,97195.19
2022-10-16T12:52:48.235Z,97200.69
2022-10-16T12:57:08.311Z,97208.38
2022-10-16T13:01:28.467Z,97207.66
2022-10-16T13:05:48.815Z,97208.69
2022-10-16T13:10:06.440Z,97220.81
2022-10-16T13:14:56.656Z,97206.63
2022-10-16T13:19:15.228Z,97178.47
2022-10-16T13:23:28.084Z,97196.06
2022-10-16T13:27:43.586Z,97216.28
2022-10-16T13:31:48.387Z,97223.56
2022-10-16T13:35:55.223Z,97214.63
2022-10-16T13:40:05.862Z,97225.50
2022-10-16T13:44:06.325Z,97227.75
2022-10-16T13:48:15.086Z,97231.56
2022-10-16T13:52:23.354Z,97224.69
2022-10-16T13:56:28.438Z,97221.22
2022-10-16T14:00:33.284Z,97228.06
2022-10-16T14:04:42.099Z,97235.59
2022-10-16T14:08:50.158Z,97243.47
2022-10-16T14:13:00.612Z,97240.03
2022-10-16T14:17:00.901Z,97236.50
2022-10-16T14:21:16.209Z,97239.59
2022-10-16T14:25:31.424Z,97230.19
2022-10-16T14:29:36.627Z,97239.41
2022-10-16T14:33:38.184Z,97236.56
2022-10-16T14:37:41.125Z,97248.03
2022-10-16T14:41:50.605Z,97244.47
2022-10-16T14:45:57.220Z,97252.75
2022-10-16T14:49:59.945Z,97266.50
2022-10-16T14:54:02.884Z,97258.56
2022-10-16T14:58:03.046Z,97257.00
2022-10-16T15:02:04.475Z,97254.06
2022-10-16T15:06:04.521Z,97244.78
2022-10-16T15:10:08.486Z,97249.47
2022-10-16T15:14:08.982Z,97258.56
2022-10-16T15:18:09.394Z,97256.84
2022-10-16T15:22:09.509Z,97265.69
2022-10-16T15:26:12.544Z,97258.00
2022-10-16T15:30:14.474Z,97247.31
2022-10-16T15:34:14.696Z,97265.03
2022-10-16T15:38:16.722Z,97266.22
2022-10-16T15:42:20.150Z,97265.53
2022-10-16T15:46:23.991Z,97277.88
2022-10-16T15:50:24.156Z,97270.47
2022-10-16T15:54:24.703Z,97274.13
2022-10-16T15:58:27.434Z,97285.53
2022-10-16T16:02:28.197Z,97283.78
2022-10-16T16:06:28.626Z,97295.59
2022-10-16T16:10:28.997Z,97291.28
2022-10-16T16:14:32.298Z,97293.63
2022-10-16T16:18:32.556Z,97282.81
2022-10-16T16:22:33.175Z,97284.00
2022-10-16T16:26:37.167Z,97303.44
2022-10-16T16:30:39.999Z,97313.56
2022-10-16T16:34:40.200Z,97296.63
2022-10-16T16:38:40.326Z,97329.94
2022-10-16T16:42:40.451Z,97313.38
2022-10-16T16:46:43.920Z,97329.09
2022-10-16T16:50:44.092Z,97348.47
2022-10-16T16:54:44.966Z,97332.66
2022-10-16T16:58:45.261Z,97334.91
2022-10-16T17:02:51.655Z,97336.16
2022-10-16T17:06:51.974Z,97355.72
2022-10-16T17:10:55.812Z,97347.22
2022-10-16T17:14:55.919Z,97352.69
2022-10-16T17:18:58.629Z,97369.44
2022-10-16T17:22:58.824Z,97376.00
2022-10-16T17:26:59.001Z,97379.84
2022-10-16T17:30:59.231Z,97393.13
2022-10-16T17:35:02.399Z,97385.47
2022-10-16T17:39:04.574Z,97394.41
2022-10-16T17:43:05.777Z,97381.31
2022-10-16T17:47:05.957Z,97380.84
2022-10-16T17:51:10.922Z,97397.16
2022-10-16T17:55:12.493Z,97395.88
2022-10-16T17:59:15.054Z,97361.25
2022-10-16T18:03:15.159Z,97396.41
2022-10-16T18:07:17.902Z,97405.22
2022-10-16T18:11:18.269Z,97414.66
2022-10-16T18:15:18.574Z,97417.97
2022-10-16T18:19:19.211Z,97411.97
2022-10-16T18:23:22.016Z,97425.31
2022-10-16T18:27:22.667Z,97419.41
2022-10-16T18:31:26.609Z,97428.31
2022-10-16T18:35:27.290Z,97379.47
2022-10-16T18:39:30.355Z,97417.59
2022-10-16T18:43:30.675Z,97421.13
2022-10-16T18:47:32.227Z,97429.03
2022-10-16T18:51:34.787Z,97436.59
2022-10-16T18:55:37.503Z,97442.00
2022-10-16T18:59:39.936Z,97445.00
2022-10-16T19:03:41.591Z,97438.53
2022-10-16T19:07:43.499Z,97446.09
2022-10-16T19:11:48.030Z,97443.88
2022-10-16T19:15:57.977Z,97462.19
2022-10-16T19:19:59.068Z,97441.75
2022-10-16T19:24:05.223Z,97455.19
2022-10-16T19:28:08.807Z,97453.59
2022-10-16T19:32:09.423Z,97455.69
2022-10-16T19:36:14.950Z,97467.31
2022-10-16T19:40:15.513Z,97450.06
2022-10-16T19:44:20.731Z,97457.06
2022-10-16T19:52:43.154Z,97480.13
2022-10-16T19:56:44.774Z,97484.22
2022-10-16T20:00:47.489Z,97494.94
2022-10-16T20:04:47.895Z,97490.19
2022-10-16T20:08:51.757Z,97497.34
2022-10-16T20:12:52.305Z,97501.63
2022-10-16T20:16:55.907Z,97507.44
2022-10-16T20:20:56.457Z,97499.22
2022-10-16T20:24:56.944Z,97495.00
2022-10-16T20:28:57.717Z,97512.22
2022-10-16T20:33:00.649Z,97506.63
2022-10-16T20:37:00.786Z,97526.84
2022-10-16T20:41:08.166Z,97534.56
2022-10-16T20:45:10.306Z,97537.97
2022-10-16T20:49:28.308Z,97538.97
2022-10-16T20:53:38.832Z,97541.56
2022-10-16T20:57:39.996Z,97546.50
2022-10-16T21:01:40.917Z,97548.66
2022-10-16T21:05:46.283Z,97547.22
2022-10-16T21:09:47.072Z,97554.94
2022-10-16T21:13:47.895Z,97548.41
2022-10-16T21:17:48.647Z,97551.25
2022-10-16T21:21:57.458Z,97548.22
2022-10-16T21:25:57.623Z,97558.56
2022-10-16T21:29:57.725Z,97562.47
2022-10-16T21:33:58.488Z,97565.81
2022-10-16T21:38:01.717Z,97559.25
2022-10-16T21:42:01.894Z,97562.00
2022-10-16T21:46:02.004Z,97561.16
2022-10-16T21:50:02.095Z,97568.56
2022-10-16T21:54:06.221Z,97567.31
2022-10-16T21:58:06.917Z,97576.16
2022-10-16T22:02:08.117Z,97571.91
2022-10-16T22:06:10.962Z,97584.25
2022-10-16T22:10:14.006Z,97580.97
2022-10-16T22:14:17.104Z,97585.34
2022-10-16T22:18:17.204Z,97584.38
2022-10-16T22:22:17.253Z,97593.88
2022-10-16T22:26:19.959Z,97585.28
2022-10-16T22:30:20.356Z,97588.00
2022-10-16T22:34:20.689Z,97587.69
2022-10-16T22:38:21.050Z,97587.44
2022-10-16T22:42:23.734Z,97585.34
2022-10-16T22:46:26.768Z,97583.84
2022-10-16T22:50:27.014Z,97579.13
2022-10-16T22:54:27.176Z,97574.34
2022-10-16T22:58:29.969Z,97583.09
2022-10-16T23:02:30.196Z,97587.41
2022-10-16T23:06:30.843Z,97592.88
2022-10-16T23:10:30.999Z,97593.44
2022-10-16T23:14:33.732Z,97588.06
2022-10-16T23:18:34.582Z,97589.97
2022-10-16T23:22:34.690Z,97591.81
2022-10-16T23:26:37.367Z,97594.97
2022-10-16T23:30:42.105Z,97591.00
2022-10-16T23:34:42.237Z,97590.66
2022-10-16T23:38:43.342Z,97596.03
2022-10-16T23:42:43.439Z,97588.53
2022-10-16T23:46:46.179Z,97592.31
2022-10-16T23:50:46.244Z,97587.03
2022-10-16T23:54:46.351Z,97600.75
2022-10-16T23:58:46.526Z,97604.78
